sensor_id;sensor_type;location;lat;lon;timestamp;pressure;altitude;pressure_sealevel;temperature;humidity
73297;BME280;61524;50.938;11.396;2023-04-23T00:02:14;98262.16;;;15.42;84.03
73297;BME280;61524;50.938;11.396;2023-04-23T00:04:51;98265.44;;;15.39;85.04
73297;BME280;61524;50.938;11.396;2023-04-23T00:07:19;98264.31;;;15.27;85.76
73297;BME280;61524;50.938;11.396;2023-04-23T00:09:46;98259.31;;;15.20;86.48
73297;BME280;61524;50.938;11.396;2023-04-23T00:12:12;98260.91;;;15.21;85.69
73297;BME280;61524;50.938;11.396;2023-04-23T00:14:37;98253.94;;;15.20;85.98
73297;BME280;61524;50.938;11.396;2023-04-23T00:17:03;98251.91;;;15.12;85.97
73297;BME280;61524;50.938;11.396;2023-04-23T00:19:29;98250.66;;;14.90;87.29
73297;BME280;61524;50.938;11.396;2023-04-23T00:21:54;98259.03;;;14.89;87.21
73297;BME280;61524;50.938;11.396;2023-04-23T00:24:20;98246.50;;;14.98;86.31
73297;BME280;61524;50.938;11.396;2023-04-23T00:26:45;98247.31;;;14.99;86.30
73297;BME280;61524;50.938;11.396;2023-04-23T00:29:11;98240.91;;;14.94;86.49
73297;BME280;61524;50.938;11.396;2023-04-23T00:31:37;98232.03;;;14.94;86.69
73297;BME280;61524;50.938;11.396;2023-04-23T00:34:02;98231.25;;;14.93;87.29
73297;BME280;61524;50.938;11.396;2023-04-23T00:36:28;98231.19;;;14.80;87.91
73297;BME280;61524;50.938;11.396;2023-04-23T00:38:53;98229.25;;;14.85;87.44
73297;BME280;61524;50.938;11.396;2023-04-23T00:41:19;98236.94;;;14.92;87.11
73297;BME280;61524;50.938;11.396;2023-04-23T00:43:45;98235.13;;;14.87;87.13
73297;BME280;61524;50.938;11.396;2023-04-23T00:46:11;98233.88;;;14.80;86.99
73297;BME280;61524;50.938;11.396;2023-04-23T00:48:37;98230.13;;;14.81;87.39
73297;BME280;61524;50.938;11.396;2023-04-23T00:51:05;98234.09;;;14.83;87.86
73297;BME280;61524;50.938;11.396;2023-04-23T00:53:31;98226.66;;;14.80;87.00
73297;BME280;61524;50.938;11.396;2023-04-23T00:55:57;98229.50;;;14.70;86.73
73297;BME280;61524;50.938;11.396;2023-04-23T00:58:22;98217.94;;;14.69;87.26
73297;BME280;61524;50.938;11.396;2023-04-23T01:00:49;98226.72;;;14.75;87.55
73297;BME280;61524;50.938;11.396;2023-04-23T01:03:16;98216.53;;;14.72;87.53
73297;BME280;61524;50.938;11.396;2023-04-23T01:05:42;98214.47;;;14.69;87.24
73297;BME280;61524;50.938;11.396;2023-04-23T01:08:13;98211.38;;;14.76;87.97
73297;BME280;61524;50.938;11.396;2023-04-23T01:10:40;98215.53;;;14.68;88.20
73297;BME280;61524;50.938;11.396;2023-04-23T01:13:06;98215.75;;;14.72;88.28
73297;BME280;61524;50.938;11.396;2023-04-23T01:15:31;98220.75;;;14.78;87.92
73297;BME280;61524;50.938;11.396;2023-04-23T01:17:57;98224.38;;;14.68;88.43
73297;BME280;61524;50.938;11.396;2023-04-23T01:20:23;98226.72;;;14.75;87.98
73297;BME280;61524;50.938;11.396;2023-04-23T01:22:49;98225.53;;;14.81;87.32
73297;BME280;61524;50.938;11.396;2023-04-23T01:25:15;98222.78;;;14.86;87.00
73297;BME280;61524;50.938;11.396;2023-04-23T01:27:41;98228.16;;;14.86;86.41
73297;BME280;61524;50.938;11.396;2023-04-23T01:30:07;98230.31;;;14.84;87.24
73297;BME280;61524;50.938;11.396;2023-04-23T01:32:33;98227.47;;;14.94;87.58
73297;BME280;61524;50.938;11.396;2023-04-23T01:35:01;98218.50;;;14.85;87.32
73297;BME280;61524;50.938;11.396;2023-04-23T01:37:27;98218.38;;;14.90;87.17
73297;BME280;61524;50.938;11.396;2023-04-23T01:39:53;98234.03;;;14.88;86.73
73297;BME280;61524;50.938;11.396;2023-04-23T01:42:19;98223.34;;;14.83;87.06
73297;BME280;61524;50.938;11.396;2023-04-23T01:44:44;98226.13;;;14.78;87.49
73297;BME280;61524;50.938;11.396;2023-04-23T01:47:10;98221.25;;;14.80;87.13
73297;BME280;61524;50.938;11.396;2023-04-23T01:49:35;98225.97;;;14.88;86.49
73297;BME280;61524;50.938;11.396;2023-04-23T01:52:01;98230.88;;;14.67;87.93
73297;BME280;61524;50.938;11.396;2023-04-23T01:54:27;98222.53;;;14.69;87.96
73297;BME280;61524;50.938;11.396;2023-04-23T01:56:52;98215.03;;;14.47;88.18
73297;BME280;61524;50.938;11.396;2023-04-23T01:59:20;98220.88;;;14.54;88.68
73297;BME280;61524;50.938;11.396;2023-04-23T02:01:47;98214.63;;;14.59;87.99
73297;BME280;61524;50.938;11.396;2023-04-23T02:04:14;98219.00;;;14.68;87.99
73297;BME280;61524;50.938;11.396;2023-04-23T02:06:42;98210.38;;;14.72;87.77
73297;BME280;61524;50.938;11.396;2023-04-23T02:09:07;98209.31;;;14.86;86.56
73297;BME280;61524;50.938;11.396;2023-04-23T02:11:33;98211.31;;;14.81;87.68
73297;BME280;61524;50.938;11.396;2023-04-23T02:13:59;98210.44;;;14.85;87.25
73297;BME280;61524;50.938;11.396;2023-04-23T02:16:25;98200.28;;;14.63;87.64
73297;BME280;61524;50.938;11.396;2023-04-23T02:18:53;98202.38;;;14.66;88.00
73297;BME280;61524;50.938;11.396;2023-04-23T02:21:18;98199.06;;;14.56;88.88
73297;BME280;61524;50.938;11.396;2023-04-23T02:23:43;98209.50;;;14.57;87.79
73297;BME280;61524;50.938;11.396;2023-04-23T02:26:09;98195.69;;;14.45;88.17
73297;BME280;61524;50.938;11.396;2023-04-23T02:28:35;98206.81;;;14.57;88.04
73297;BME280;61524;50.938;11.396;2023-04-23T02:31:00;98203.06;;;14.58;88.20
73297;BME280;61524;50.938;11.396;2023-04-23T02:33:26;98213.53;;;14.60;87.81
73297;BME280;61524;50.938;11.396;2023-04-23T02:35:51;98210.16;;;14.68;88.08
73297;BME280;61524;50.938;11.396;2023-04-23T02:38:16;98210.75;;;14.27;89.86
73297;BME280;61524;50.938;11.396;2023-04-23T02:40:42;98213.94;;;14.29;88.69
73297;BME280;61524;50.938;11.396;2023-04-23T02:43:07;98208.56;;;14.29;89.00
73297;BME280;61524;50.938;11.396;2023-04-23T02:45:33;98208.41;;;14.39;88.22
73297;BME280;61524;50.938;11.396;2023-04-23T02:47:58;98204.63;;;14.40;87.63
73297;BME280;61524;50.938;11.396;2023-04-23T02:50:24;98203.03;;;14.39;87.87
73297;BME280;61524;50.938;11.396;2023-04-23T02:52:50;98208.84;;;14.47;87.63
73297;BME280;61524;50.938;11.396;2023-04-23T02:55:15;98198.34;;;14.50;87.43
73297;BME280;61524;50.938;11.396;2023-04-23T02:57:41;98216.41;;;14.44;88.13
73297;BME280;61524;50.938;11.396;2023-04-23T03:00:08;98206.75;;;14.43;87.94
73297;BME280;61524;50.938;11.396;2023-04-23T03:02:33;98212.63;;;14.45;88.01
73297;BME280;61524;50.938;11.396;2023-04-23T03:04:59;98201.06;;;14.45;88.16
73297;BME280;61524;50.938;11.396;2023-04-23T03:07:25;98207.25;;;14.45;87.41
73297;BME280;61524;50.938;11.396;2023-04-23T03:09:50;98186.91;;;14.39;87.22
73297;BME280;61524;50.938;11.396;2023-04-23T03:12:15;98210.50;;;14.48;87.99
73297;BME280;61524;50.938;11.396;2023-04-23T03:14:42;98205.81;;;14.34;88.72
73297;BME280;61524;50.938;11.396;2023-04-23T03:17:08;98215.53;;;14.30;89.22
73297;BME280;61524;50.938;11.396;2023-04-23T03:19:34;98214.31;;;14.23;89.05
73297;BME280;61524;50.938;11.396;2023-04-23T03:21:59;98217.88;;;14.18;89.38
73297;BME280;61524;50.938;11.396;2023-04-23T03:24:27;98204.00;;;14.11;89.30
73297;BME280;61524;50.938;11.396;2023-04-23T03:26:56;98201.50;;;14.14;89.58
73297;BME280;61524;50.938;11.396;2023-04-23T03:29:22;98213.50;;;14.22;88.83
73297;BME280;61524;50.938;11.396;2023-04-23T03:31:48;98199.56;;;14.20;88.68
73297;BME280;61524;50.938;11.396;2023-04-23T03:34:13;98200.44;;;14.34;87.95
73297;BME280;61524;50.938;11.396;2023-04-23T03:36:39;98194.56;;;14.32;88.12
73297;BME280;61524;50.938;11.396;2023-04-23T03:39:05;98195.22;;;14.24;88.59
73297;BME280;61524;50.938;11.396;2023-04-23T03:41:31;98203.06;;;14.21;88.75
73297;BME280;61524;50.938;11.396;2023-04-23T03:43:56;98201.22;;;14.35;87.93
73297;BME280;61524;50.938;11.396;2023-04-23T03:46:22;98211.56;;;14.28;88.38
73297;BME280;61524;50.938;11.396;2023-04-23T03:48:47;98213.31;;;14.37;88.05
73297;BME280;61524;50.938;11.396;2023-04-23T03:51:13;98213.72;;;14.26;88.07
73297;BME280;61524;50.938;11.396;2023-04-23T03:53:38;98204.84;;;14.44;86.61
73297;BME280;61524;50.938;11.396;2023-04-23T03:56:04;98214.16;;;14.52;86.74
73297;BME280;61524;50.938;11.396;2023-04-23T03:58:29;98203.63;;;14.36;87.59
73297;BME280;61524;50.938;11.396;2023-04-23T04:00:55;98209.88;;;14.51;87.24
73297;BME280;61524;50.938;11.396;2023-04-23T04:03:20;98207.94;;;14.37;88.28
73297;BME280;61524;50.938;11.396;2023-04-23T04:05:45;98206.09;;;14.33;87.83
73297;BME280;61524;50.938;11.396;2023-04-23T04:08:11;98202.91;;;14.12;89.10
73297;BME280;61524;50.938;11.396;2023-04-23T04:10:36;98205.16;;;14.24;88.22
73297;BME280;61524;50.938;11.396;2023-04-23T04:13:02;98213.50;;;14.22;88.81
73297;BME280;61524;50.938;11.396;2023-04-23T04:15:28;98215.91;;;14.24;88.22
73297;BME280;61524;50.938;11.396;2023-04-23T04:17:53;98224.13;;;14.32;87.36
73297;BME280;61524;50.938;11.396;2023-04-23T04:20:19;98217.28;;;14.40;86.99
73297;BME280;61524;50.938;11.396;2023-04-23T04:22:44;98217.72;;;14.28;87.15
73297;BME280;61524;50.938;11.396;2023-04-23T04:25:11;98199.06;;;14.18;87.92
73297;BME280;61524;50.938;11.396;2023-04-23T04:27:36;98208.06;;;14.27;87.96
73297;BME280;61524;50.938;11.396;2023-04-23T04:30:03;98225.78;;;14.28;88.25
73297;BME280;61524;50.938;11.396;2023-04-23T04:32:30;98221.34;;;14.00;90.08
73297;BME280;61524;50.938;11.396;2023-04-23T04:34:56;98228.53;;;14.23;88.51
73297;BME280;61524;50.938;11.396;2023-04-23T04:37:21;98226.66;;;14.24;88.64
73297;BME280;61524;50.938;11.396;2023-04-23T04:39:47;98225.84;;;14.23;88.88
73297;BME280;61524;50.938;11.396;2023-04-23T04:42:12;98232.63;;;14.21;88.92
73297;BME280;61524;50.938;11.396;2023-04-23T04:44:38;98232.69;;;14.34;87.31
73297;BME280;61524;50.938;11.396;2023-04-23T04:47:04;98238.78;;;14.40;87.02
73297;BME280;61524;50.938;11.396;2023-04-23T04:49:31;98222.56;;;14.45;86.10
73297;BME280;61524;50.938;11.396;2023-04-23T04:51:56;98226.88;;;14.65;85.45
73297;BME280;61524;50.938;11.396;2023-04-23T04:54:22;98231.63;;;14.54;85.06
73297;BME280;61524;50.938;11.396;2023-04-23T04:56:47;98233.09;;;14.41;85.78
73297;BME280;61524;50.938;11.396;2023-04-23T04:59:13;98236.13;;;14.59;83.12
73297;BME280;61524;50.938;11.396;2023-04-23T05:01:38;98240.97;;;14.76;82.48
73297;BME280;61524;50.938;11.396;2023-04-23T05:04:04;98224.75;;;14.81;81.04
73297;BME280;61524;50.938;11.396;2023-04-23T05:06:29;98240.59;;;14.82;81.66
73297;BME280;61524;50.938;11.396;2023-04-23T05:08:56;98241.00;;;14.89;81.59
73297;BME280;61524;50.938;11.396;2023-04-23T05:11:21;98245.50;;;14.94;81.48
73297;BME280;61524;50.938;11.396;2023-04-23T05:13:47;98257.44;;;14.88;80.77
73297;BME280;61524;50.938;11.396;2023-04-23T05:16:13;98247.97;;;14.90;80.86
73297;BME280;61524;50.938;11.396;2023-04-23T05:18:41;98246.47;;;14.84;80.97
73297;BME280;61524;50.938;11.396;2023-04-23T05:21:07;98247.69;;;14.92;81.15
73297;BME280;61524;50.938;11.396;2023-04-23T05:23:34;98256.41;;;15.03;81.16
73297;BME280;61524;50.938;11.396;2023-04-23T05:26:00;98253.38;;;15.23;80.39
73297;BME280;61524;50.938;11.396;2023-04-23T05:28:28;98260.91;;;15.21;80.69
73297;BME280;61524;50.938;11.396;2023-04-23T05:30:53;98255.84;;;15.19;81.02
73297;BME280;61524;50.938;11.396;2023-04-23T05:33:19;98254.53;;;15.17;80.83
73297;BME280;61524;50.938;11.396;2023-04-23T05:35:45;98265.03;;;15.00;81.28
73297;BME280;61524;50.938;11.396;2023-04-23T05:38:10;98266.19;;;15.12;81.28
73297;BME280;61524;50.938;11.396;2023-04-23T05:40:36;98264.63;;;15.25;80.76
73297;BME280;61524;50.938;11.396;2023-04-23T05:43:01;98256.13;;;15.18;81.21
73297;BME280;61524;50.938;11.396;2023-04-23T05:45:27;98274.50;;;15.43;80.76
73297;BME280;61524;50.938;11.396;2023-04-23T05:47:53;98264.56;;;15.58;80.32
73297;BME280;61524;50.938;11.396;2023-04-23T05:50:19;98265.97;;;15.55;79.40
73297;BME280;61524;50.938;11.396;2023-04-23T05:52:44;98281.59;;;15.39;80.48
73297;BME280;61524;50.938;11.396;2023-04-23T05:55:10;98275.47;;;15.66;80.40
73297;BME280;61524;50.938;11.396;2023-04-23T05:57:36;98279.31;;;15.60;80.42
73297;BME280;61524;50.938;11.396;2023-04-23T06:00:03;98276.88;;;15.78;79.76
73297;BME280;61524;50.938;11.396;2023-04-23T06:02:30;98277.56;;;15.97;79.69
73297;BME280;61524;50.938;11.396;2023-04-23T06:04:58;98278.56;;;15.73;79.93
73297;BME280;61524;50.938;11.396;2023-04-23T06:07:23;98296.72;;;15.68;79.88
73297;BME280;61524;50.938;11.396;2023-04-23T06:09:49;98289.91;;;15.70;79.63
73297;BME280;61524;50.938;11.396;2023-04-23T06:12:14;98280.25;;;15.69;79.63
73297;BME280;61524;50.938;11.396;2023-04-23T06:14:40;98286.94;;;15.72;79.30
73297;BME280;61524;50.938;11.396;2023-04-23T06:17:06;98281.38;;;15.82;79.42
73297;BME280;61524;50.938;11.396;2023-04-23T06:19:31;98291.50;;;15.58;79.49
73297;BME280;61524;50.938;11.396;2023-04-23T06:21:57;98298.69;;;15.62;80.26
73297;BME280;61524;50.938;11.396;2023-04-23T06:24:22;98294.50;;;15.70;79.95
73297;BME280;61524;50.938;11.396;2023-04-23T06:26:47;98292.28;;;15.44;79.85
73297;BME280;61524;50.938;11.396;2023-04-23T06:29:13;98300.25;;;15.49;80.23
73297;BME280;61524;50.938;11.396;2023-04-23T06:31:38;98315.88;;;15.34;80.69
73297;BME280;61524;50.938;11.396;2023-04-23T06:34:05;98351.16;;;14.38;84.08
73297;BME280;61524;50.938;11.396;2023-04-23T06:36:31;98355.41;;;13.04;82.16
73297;BME280;61524;50.938;11.396;2023-04-23T06:38:56;98308.88;;;12.40;84.66
73297;BME280;61524;50.938;11.396;2023-04-23T06:41:22;98337.47;;;12.55;84.48
73297;BME280;61524;50.938;11.396;2023-04-23T06:43:47;98346.53;;;12.64;84.06
73297;BME280;61524;50.938;11.396;2023-04-23T06:46:13;98338.31;;;12.50;83.08
73297;BME280;61524;50.938;11.396;2023-04-23T06:48:39;98329.97;;;12.57;81.38
73297;BME280;61524;50.938;11.396;2023-04-23T06:51:04;98338.22;;;12.66;79.85
73297;BME280;61524;50.938;11.396;2023-04-23T06:53:30;98344.72;;;12.99;80.11
73297;BME280;61524;50.938;11.396;2023-04-23T06:55:56;98349.34;;;13.27;80.77
73297;BME280;61524;50.938;11.396;2023-04-23T06:58:21;98340.97;;;13.34;77.70
73297;BME280;61524;50.938;11.396;2023-04-23T07:00:52;98344.25;;;13.55;78.90
73297;BME280;61524;50.938;11.396;2023-04-23T07:03:18;98357.28;;;13.66;79.50
73297;BME280;61524;50.938;11.396;2023-04-23T07:05:43;98338.69;;;13.75;79.46
73297;BME280;61524;50.938;11.396;2023-04-23T07:08:09;98342.66;;;14.07;78.28
73297;BME280;61524;50.938;11.396;2023-04-23T07:10:34;98349.94;;;14.25;77.95
73297;BME280;61524;50.938;11.396;2023-04-23T07:12:59;98345.97;;;14.41;76.65
73297;BME280;61524;50.938;11.396;2023-04-23T07:15:25;98341.47;;;14.80;76.28
73297;BME280;61524;50.938;11.396;2023-04-23T07:17:51;98349.63;;;15.26;74.44
73297;BME280;61524;50.938;11.396;2023-04-23T07:20:16;98342.00;;;15.66;72.94
73297;BME280;61524;50.938;11.396;2023-04-23T07:22:42;98335.84;;;16.20;71.92
73297;BME280;61524;50.938;11.396;2023-04-23T07:25:07;98348.50;;;16.47;71.51
73297;BME280;61524;50.938;11.396;2023-04-23T07:27:33;98335.22;;;16.23;69.48
73297;BME280;61524;50.938;11.396;2023-04-23T07:29:59;98332.75;;;15.99;69.42
73297;BME280;61524;50.938;11.396;2023-04-23T07:32:26;98340.06;;;15.20;68.93
73297;BME280;61524;50.938;11.396;2023-04-23T07:34:53;98344.66;;;15.33;69.49
73297;BME280;61524;50.938;11.396;2023-04-23T07:37:18;98342.84;;;14.77;69.90
73297;BME280;61524;50.938;11.396;2023-04-23T07:39:45;98346.19;;;14.88;69.32
73297;BME280;61524;50.938;11.396;2023-04-23T07:42:11;98352.28;;;15.12;69.78
73297;BME280;61524;50.938;11.396;2023-04-23T07:44:37;98345.09;;;14.89;68.88
73297;BME280;61524;50.938;11.396;2023-04-23T07:47:02;98358.91;;;14.82;68.77
73297;BME280;61524;50.938;11.396;2023-04-23T07:49:28;98367.91;;;15.10;69.30
73297;BME280;61524;50.938;11.396;2023-04-23T07:51:53;98365.78;;;15.26;67.73
73297;BME280;61524;50.938;11.396;2023-04-23T07:54:19;98352.41;;;15.54;67.16
73297;BME280;61524;50.938;11.396;2023-04-23T07:56:44;98356.38;;;15.42;66.68
73297;BME280;61524;50.938;11.396;2023-04-23T07:59:10;98356.41;;;15.89;65.44
73297;BME280;61524;50.938;11.396;2023-04-23T08:01:35;98366.25;;;15.66;65.07
73297;BME280;61524;50.938;11.396;2023-04-23T08:04:01;98367.97;;;15.89;64.26
73297;BME280;61524;50.938;11.396;2023-04-23T08:06:27;98355.97;;;16.50;66.17
73297;BME280;61524;50.938;11.396;2023-04-23T08:08:54;98361.69;;;15.94;64.59
73297;BME280;61524;50.938;11.396;2023-04-23T08:11:20;98358.69;;;16.37;66.18
73297;BME280;61524;50.938;11.396;2023-04-23T08:13:46;98363.88;;;15.92;65.07
73297;BME280;61524;50.938;11.396;2023-04-23T08:16:11;98354.59;;;16.12;65.84
73297;BME280;61524;50.938;11.396;2023-04-23T08:18:37;98367.59;;;16.37;64.21
73297;BME280;61524;50.938;11.396;2023-04-23T08:21:02;98359.66;;;16.41;65.26
73297;BME280;61524;50.938;11.396;2023-04-23T08:23:28;98352.56;;;16.72;62.96
73297;BME280;61524;50.938;11.396;2023-04-23T08:25:53;98359.34;;;16.70;62.79
73297;BME280;61524;50.938;11.396;2023-04-23T08:28:19;98344.66;;;16.62;61.86
73297;BME280;61524;50.938;11.396;2023-04-23T08:30:45;98363.47;;;16.53;61.52
73297;BME280;61524;50.938;11.396;2023-04-23T08:33:10;98357.56;;;16.51;61.37
73297;BME280;61524;50.938;11.396;2023-04-23T08:35:36;98355.63;;;17.38;60.13
73297;BME280;61524;50.938;11.396;2023-04-23T08:38:02;98350.28;;;18.09;58.98
73297;BME280;61524;50.938;11.396;2023-04-23T08:40:29;98351.47;;;18.34;59.42
73297;BME280;61524;50.938;11.396;2023-04-23T08:43:04;98355.19;;;18.07;58.13
73297;BME280;61524;50.938;11.396;2023-04-23T08:45:31;98350.13;;;17.74;60.10
73297;BME280;61524;50.938;11.396;2023-04-23T08:47:59;98357.09;;;18.06;57.83
73297;BME280;61524;50.938;11.396;2023-04-23T08:50:27;98357.19;;;17.62;58.15
73297;BME280;61524;50.938;11.396;2023-04-23T08:52:55;98363.06;;;17.86;58.97
73297;BME280;61524;50.938;11.396;2023-04-23T08:55:21;98361.69;;;18.37;58.20
73297;BME280;61524;50.938;11.396;2023-04-23T08:57:48;98352.97;;;18.66;60.63
73297;BME280;61524;50.938;11.396;2023-04-23T09:00:16;98345.72;;;18.84;58.52
73297;BME280;61524;50.938;11.396;2023-04-23T09:02:43;98357.63;;;19.35;58.27
73297;BME280;61524;50.938;11.396;2023-04-23T09:05:09;98363.22;;;19.21;56.21
73297;BME280;61524;50.938;11.396;2023-04-23T09:07:35;98360.97;;;19.14;57.64
73297;BME280;61524;50.938;11.396;2023-04-23T09:10:05;98365.91;;;19.64;55.56
73297;BME280;61524;50.938;11.396;2023-04-23T09:12:37;98353.34;;;19.17;54.78
73297;BME280;61524;50.938;11.396;2023-04-23T09:15:04;98362.03;;;19.74;55.30
73297;BME280;61524;50.938;11.396;2023-04-23T09:17:44;98358.38;;;19.53;55.60
73297;BME280;61524;50.938;11.396;2023-04-23T09:20:12;98356.31;;;19.67;54.10
73297;BME280;61524;50.938;11.396;2023-04-23T09:25:04;98356.09;;;20.57;53.38
73297;BME280;61524;50.938;11.396;2023-04-23T09:27:29;98346.59;;;20.42;53.38
73297;BME280;61524;50.938;11.396;2023-04-23T09:29:55;98342.22;;;20.21;51.79
73297;BME280;61524;50.938;11.396;2023-04-23T09:32:33;98339.50;;;20.29;53.84
73297;BME280;61524;50.938;11.396;2023-04-23T09:35:04;98334.00;;;20.38;51.96
73297;BME280;61524;50.938;11.396;2023-04-23T09:37:31;98341.66;;;20.06;50.83
73297;BME280;61524;50.938;11.396;2023-04-23T09:40:05;98342.94;;;19.45;50.29
73297;BME280;61524;50.938;11.396;2023-04-23T09:42:34;98337.81;;;19.69;50.02
73297;BME280;61524;50.938;11.396;2023-04-23T09:47:31;98332.44;;;19.60;52.08
73297;BME280;61524;50.938;11.396;2023-04-23T09:49:58;98334.75;;;19.79;49.81
73297;BME280;61524;50.938;11.396;2023-04-23T09:52:23;98330.13;;;20.18;50.57
73297;BME280;61524;50.938;11.396;2023-04-23T09:54:49;98336.31;;;19.89;49.56
73297;BME280;61524;50.938;11.396;2023-04-23T09:57:15;98314.44;;;19.94;50.52
73297;BME280;61524;50.938;11.396;2023-04-23T09:59:41;98322.00;;;20.48;48.04
73297;BME280;61524;50.938;11.396;2023-04-23T10:02:07;98320.41;;;20.47;48.69
73297;BME280;61524;50.938;11.396;2023-04-23T10:04:33;98326.72;;;20.30;49.36
73297;BME280;61524;50.938;11.396;2023-04-23T10:07:01;98319.63;;;20.46;48.34
73297;BME280;61524;50.938;11.396;2023-04-23T10:09:28;98327.34;;;19.97;50.88
73297;BME280;61524;50.938;11.396;2023-04-23T10:11:58;98340.25;;;20.89;48.14
73297;BME280;61524;50.938;11.396;2023-04-23T10:14:25;98332.88;;;21.31;48.77
73297;BME280;61524;50.938;11.396;2023-04-23T10:16:55;98332.19;;;21.80;48.68
73297;BME280;61524;50.938;11.396;2023-04-23T10:19:23;98317.91;;;21.95;47.94
73297;BME280;61524;50.938;11.396;2023-04-23T10:21:52;98328.84;;;21.29;46.04
73297;BME280;61524;50.938;11.396;2023-04-23T10:24:22;98329.56;;;21.05;47.06
73297;BME280;61524;50.938;11.396;2023-04-23T10:26:50;98333.34;;;21.45;49.69
73297;BME280;61524;50.938;11.396;2023-04-23T10:29:19;98326.06;;;19.95;47.42
73297;BME280;61524;50.938;11.396;2023-04-23T10:31:46;98327.09;;;20.19;47.77
73297;BME280;61524;50.938;11.396;2023-04-23T10:34:13;98337.59;;;20.21;47.91
73297;BME280;61524;50.938;11.396;2023-04-23T10:36:39;98331.44;;;19.56;47.51
73297;BME280;61524;50.938;11.396;2023-04-23T10:39:05;98325.69;;;19.58;48.32
73297;BME280;61524;50.938;11.396;2023-04-23T10:41:36;98331.72;;;19.81;48.83
73297;BME280;61524;50.938;11.396;2023-04-23T10:44:05;98321.38;;;19.74;48.45
73297;BME280;61524;50.938;11.396;2023-04-23T10:46:32;98327.81;;;19.99;47.94
73297;BME280;61524;50.938;11.396;2023-04-23T10:49:13;98325.06;;;20.08;47.39
73297;BME280;61524;50.938;11.396;2023-04-23T10:51:39;98325.88;;;20.08;47.47
73297;BME280;61524;50.938;11.396;2023-04-23T10:54:09;98319.84;;;19.94;48.19
73297;BME280;61524;50.938;11.396;2023-04-23T10:56:39;98309.69;;;19.18;49.81
73297;BME280;61524;50.938;11.396;2023-04-23T10:59:17;98321.53;;;19.78;49.04
73297;BME280;61524;50.938;11.396;2023-04-23T11:01:46;98306.44;;;19.59;49.93
73297;BME280;61524;50.938;11.396;2023-04-23T11:04:23;98311.44;;;19.87;50.48
73297;BME280;61524;50.938;11.396;2023-04-23T11:06:52;98302.00;;;20.23;48.82
73297;BME280;61524;50.938;11.396;2023-04-23T11:11:58;98299.69;;;20.33;48.69
73297;BME280;61524;50.938;11.396;2023-04-23T11:17:12;98290.75;;;20.62;48.57
73297;BME280;61524;50.938;11.396;2023-04-23T11:19:39;98286.22;;;20.87;46.54
73297;BME280;61524;50.938;11.396;2023-04-23T11:22:17;98295.31;;;20.50;46.87
73297;BME280;61524;50.938;11.396;2023-04-23T11:24:43;98299.38;;;20.05;47.77
73297;BME280;61524;50.938;11.396;2023-04-23T11:27:15;98285.84;;;20.77;50.30
73297;BME280;61524;50.938;11.396;2023-04-23T11:29:43;98283.53;;;20.45;49.95
73297;BME280;61524;50.938;11.396;2023-04-23T11:32:10;98285.88;;;20.26;50.55
73297;BME280;61524;50.938;11.396;2023-04-23T11:34:44;98293.38;;;20.29;50.91
73297;BME280;61524;50.938;11.396;2023-04-23T11:37:11;98275.16;;;20.30;50.47
73297;BME280;61524;50.938;11.396;2023-04-23T11:39:37;98272.19;;;20.43;49.23
73297;BME280;61524;50.938;11.396;2023-04-23T11:42:14;98274.78;;;20.40;49.22
73297;BME280;61524;50.938;11.396;2023-04-23T11:44:41;98275.88;;;20.68;48.33
73297;BME280;61524;50.938;11.396;2023-04-23T11:47:07;98273.34;;;20.63;47.31
73297;BME280;61524;50.938;11.396;2023-04-23T11:49:36;98259.31;;;21.15;47.77
73297;BME280;61524;50.938;11.396;2023-04-23T11:52:02;98257.16;;;21.42;47.54
73297;BME280;61524;50.938;11.396;2023-04-23T11:54:28;98255.66;;;21.44;45.93
73297;BME280;61524;50.938;11.396;2023-04-23T11:56:54;98255.00;;;20.39;47.16
73297;BME280;61524;50.938;11.396;2023-04-23T11:59:19;98251.41;;;21.22;47.26
73297;BME280;61524;50.938;11.396;2023-04-23T12:01:47;98243.09;;;21.07;45.39
73297;BME280;61524;50.938;11.396;2023-04-23T12:04:24;98248.03;;;20.71;46.13
73297;BME280;61524;50.938;11.396;2023-04-23T12:06:51;98239.00;;;20.67;46.92
73297;BME280;61524;50.938;11.396;2023-04-23T12:09:19;98233.34;;;21.06;45.17
73297;BME280;61524;50.938;11.396;2023-04-23T12:11:45;98237.69;;;21.77;47.85
73297;BME280;61524;50.938;11.396;2023-04-23T12:14:13;98237.03;;;21.22;45.72
73297;BME280;61524;50.938;11.396;2023-04-23T12:16:43;98233.69;;;21.04;45.37
73297;BME280;61524;50.938;11.396;2023-04-23T12:19:12;98221.06;;;20.87;48.38
73297;BME280;61524;50.938;11.396;2023-04-23T12:21:48;98220.00;;;21.58;47.07
73297;BME280;61524;50.938;11.396;2023-04-23T12:24:15;98216.25;;;21.38;45.39
73297;BME280;61524;50.938;11.396;2023-04-23T12:26:41;98218.56;;;21.28;45.64
73297;BME280;61524;50.938;11.396;2023-04-23T12:29:12;98221.16;;;21.24;46.17
73297;BME280;61524;50.938;11.396;2023-04-23T12:31:37;98226.34;;;21.74;46.17
73297;BME280;61524;50.938;11.396;2023-04-23T12:36:29;98215.69;;;21.45;47.91
73297;BME280;61524;50.938;11.396;2023-04-23T12:39:29;98209.16;;;20.80;47.21
73297;BME280;61524;50.938;11.396;2023-04-23T12:42:15;98204.00;;;20.66;49.03
73297;BME280;61524;50.938;11.396;2023-04-23T12:44:40;98200.47;;;20.53;50.19
73297;BME280;61524;50.938;11.396;2023-04-23T12:47:07;98210.84;;;21.05;48.78
73297;BME280;61524;50.938;11.396;2023-04-23T12:49:35;98197.72;;;21.19;48.33
73297;BME280;61524;50.938;11.396;2023-04-23T12:52:02;98199.16;;;21.50;46.48
73297;BME280;61524;50.938;11.396;2023-04-23T12:54:29;98198.81;;;21.39;48.67
73297;BME280;61524;50.938;11.396;2023-04-23T12:56:56;98192.47;;;20.90;48.20
73297;BME280;61524;50.938;11.396;2023-04-23T12:59:22;98191.22;;;21.57;48.37
73297;BME280;61524;50.938;11.396;2023-04-23T13:01:49;98186.31;;;20.81;49.66